sensor_id;sensor_type;location;lat;lon;timestamp;P1;durP1;ratioP1;P2;durP2;ratioP2
7199;SDS011;3641;49.082;8.200;2022-08-21T00:01:15;7.22;;;2.53;;
7199;SDS011;3641;49.082;8.200;2022-08-21T00:03:44;6.05;;;2.53;;
7199;SDS011;3641;49.082;8.200;2022-08-21T00:06:11;6.13;;;2.50;;
7199;SDS011;3641;49.082;8.200;2022-08-21T00:08:37;5.53;;;2.30;;
7199;SDS011;3641;49.082;8.200;2022-08-21T00:11:04;4.50;;;2.30;;
7199;SDS011;3641;49.082;8.200;2022-08-21T00:13:33;6.05;;;2.22;;
7199;SDS011;3641;49.082;8.200;2022-08-21T00:16:00;7.03;;;2.65;;
7199;SDS011;3641;49.082;8.200;2022-08-21T00:18:28;5.47;;;2.50;;
7199;SDS011;3641;49.082;8.200;2022-08-21T00:20:55;5.28;;;2.20;;
7199;SDS011;3641;49.082;8.200;2022-08-21T00:23:21;9.05;;;2.58;;
7199;SDS011;3641;49.082;8.200;2022-08-21T00:25:48;6.72;;;2.67;;
7199;SDS011;3641;49.082;8.200;2022-08-21T00:28:15;4.80;;;2.10;;
7199;SDS011;3641;49.082;8.200;2022-08-21T00:30:43;7.20;;;2.60;;
7199;SDS011;3641;49.082;8.200;2022-08-21T00:33:11;6.07;;;2.78;;
7199;SDS011;3641;49.082;8.200;2022-08-21T00:35:38;5.82;;;2.60;;
7199;SDS011;3641;49.082;8.200;2022-08-21T00:38:06;6.75;;;2.30;;
7199;SDS011;3641;49.082;8.200;2022-08-21T00:40:38;8.20;;;3.20;;
7199;SDS011;3641;49.082;8.200;2022-08-21T00:43:10;9.20;;;2.75;;
7199;SDS011;3641;49.082;8.200;2022-08-21T00:45:39;5.82;;;2.47;;
7199;SDS011;3641;49.082;8.200;2022-08-21T00:48:07;7.25;;;2.72;;
7199;SDS011;3641;49.082;8.200;2022-08-21T00:50:35;4.60;;;2.50;;
7199;SDS011;3641;49.082;8.200;2022-08-21T00:53:06;6.15;;;2.50;;
7199;SDS011;3641;49.082;8.200;2022-08-21T00:55:35;5.65;;;2.75;;
7199;SDS011;3641;49.082;8.200;2022-08-21T00:58:04;5.72;;;3.20;;
7199;SDS011;3641;49.082;8.200;2022-08-21T01:00:34;6.30;;;2.75;;
7199;SDS011;3641;49.082;8.200;2022-08-21T01:03:06;8.40;;;3.40;;
7199;SDS011;3641;49.082;8.200;2022-08-21T01:05:36;8.52;;;2.83;;
7199;SDS011;3641;49.082;8.200;2022-08-21T01:08:03;4.45;;;2.50;;
7199;SDS011;3641;49.082;8.200;2022-08-21T01:10:31;5.28;;;2.50;;
7199;SDS011;3641;49.082;8.200;2022-08-21T01:12:58;4.47;;;2.55;;
7199;SDS011;3641;49.082;8.200;2022-08-21T01:15:26;5.57;;;2.65;;
7199;SDS011;3641;49.082;8.200;2022-08-21T01:17:56;6.07;;;2.35;;
7199;SDS011;3641;49.082;8.200;2022-08-21T01:20:24;6.45;;;2.75;;
7199;SDS011;3641;49.082;8.200;2022-08-21T01:22:52;5.53;;;2.80;;
7199;SDS011;3641;49.082;8.200;2022-08-21T01:25:19;5.82;;;2.75;;
7199;SDS011;3641;49.082;8.200;2022-08-21T01:27:46;5.53;;;3.22;;
7199;SDS011;3641;49.082;8.200;2022-08-21T01:30:13;5.57;;;2.60;;
7199;SDS011;3641;49.082;8.200;2022-08-21T01:32:42;4.70;;;2.40;;
7199;SDS011;3641;49.082;8.200;2022-08-21T01:35:10;4.75;;;2.50;;
7199;SDS011;3641;49.082;8.200;2022-08-21T01:37:37;5.45;;;2.47;;
7199;SDS011;3641;49.082;8.200;2022-08-21T01:40:06;7.30;;;2.30;;
7199;SDS011;3641;49.082;8.200;2022-08-21T01:42:33;6.30;;;2.85;;
7199;SDS011;3641;49.082;8.200;2022-08-21T01:45:00;6.95;;;2.75;;
7199;SDS011;3641;49.082;8.200;2022-08-21T01:47:27;6.32;;;2.60;;
7199;SDS011;3641;49.082;8.200;2022-08-21T01:49:53;6.53;;;2.38;;
7199;SDS011;3641;49.082;8.200;2022-08-21T01:52:20;7.35;;;2.58;;
7199;SDS011;3641;49.082;8.200;2022-08-21T01:54:46;7.03;;;2.50;;
7199;SDS011;3641;49.082;8.200;2022-08-21T01:57:14;7.32;;;3.20;;
7199;SDS011;3641;49.082;8.200;2022-08-21T01:59:42;7.85;;;2.53;;
7199;SDS011;3641;49.082;8.200;2022-08-21T02:02:08;8.27;;;2.70;;
7199;SDS011;3641;49.082;8.200;2022-08-21T02:04:35;8.55;;;3.20;;
7199;SDS011;3641;49.082;8.200;2022-08-21T02:07:02;5.53;;;2.65;;
7199;SDS011;3641;49.082;8.200;2022-08-21T02:09:29;6.88;;;2.85;;
7199;SDS011;3641;49.082;8.200;2022-08-21T02:11:55;6.85;;;2.95;;
7199;SDS011;3641;49.082;8.200;2022-08-21T02:14:23;6.25;;;2.70;;
7199;SDS011;3641;49.082;8.200;2022-08-21T02:16:50;5.93;;;2.78;;
7199;SDS011;3641;49.082;8.200;2022-08-21T02:19:17;4.93;;;2.33;;
7199;SDS011;3641;49.082;8.200;2022-08-21T02:21:43;5.80;;;2.80;;
7199;SDS011;3641;49.082;8.200;2022-08-21T02:24:10;5.50;;;2.95;;
7199;SDS011;3641;49.082;8.200;2022-08-21T02:26:37;6.10;;;2.90;;
7199;SDS011;3641;49.082;8.200;2022-08-21T02:29:11;5.63;;;2.85;;
7199;SDS011;3641;49.082;8.200;2022-08-21T02:31:39;6.40;;;3.03;;
7199;SDS011;3641;49.082;8.200;2022-08-21T02:34:06;7.47;;;3.05;;
7199;SDS011;3641;49.082;8.200;2022-08-21T02:36:33;9.02;;;3.30;;
7199;SDS011;3641;49.082;8.200;2022-08-21T02:39:00;7.65;;;3.40;;
7199;SDS011;3641;49.082;8.200;2022-08-21T02:41:26;8.20;;;3.08;;
7199;SDS011;3641;49.082;8.200;2022-08-21T02:43:53;6.85;;;2.40;;
7199;SDS011;3641;49.082;8.200;2022-08-21T02:46:20;6.53;;;3.03;;
7199;SDS011;3641;49.082;8.200;2022-08-21T02:48:48;5.22;;;2.97;;
7199;SDS011;3641;49.082;8.200;2022-08-21T02:51:16;8.68;;;3.13;;
7199;SDS011;3641;49.082;8.200;2022-08-21T02:53:45;7.85;;;3.35;;
7199;SDS011;3641;49.082;8.200;2022-08-21T02:56:13;5.70;;;2.83;;
7199;SDS011;3641;49.082;8.200;2022-08-21T02:58:42;4.93;;;3.03;;
7199;SDS011;3641;49.082;8.200;2022-08-21T03:01:11;6.05;;;3.25;;
7199;SDS011;3641;49.082;8.200;2022-08-21T03:03:38;8.65;;;2.78;;
7199;SDS011;3641;49.082;8.200;2022-08-21T03:06:09;6.57;;;3.20;;
7199;SDS011;3641;49.082;8.200;2022-08-21T03:08:37;7.55;;;3.25;;
7199;SDS011;3641;49.082;8.200;2022-08-21T03:11:04;7.90;;;3.00;;
7199;SDS011;3641;49.082;8.200;2022-08-21T03:13:31;8.35;;;3.20;;
7199;SDS011;3641;49.082;8.200;2022-08-21T03:15:58;5.70;;;3.17;;
7199;SDS011;3641;49.082;8.200;2022-08-21T03:18:25;9.18;;;3.95;;
7199;SDS011;3641;49.082;8.200;2022-08-21T03:20:51;7.43;;;3.85;;
7199;SDS011;3641;49.082;8.200;2022-08-21T03:23:19;6.47;;;3.60;;
7199;SDS011;3641;49.082;8.200;2022-08-21T03:25:46;8.85;;;3.58;;
7199;SDS011;3641;49.082;8.200;2022-08-21T03:28:15;5.55;;;3.25;;
7199;SDS011;3641;49.082;8.200;2022-08-21T03:30:44;8.98;;;3.40;;
7199;SDS011;3641;49.082;8.200;2022-08-21T03:33:13;9.35;;;3.25;;
7199;SDS011;3641;49.082;8.200;2022-08-21T03:35:41;9.10;;;3.30;;
7199;SDS011;3641;49.082;8.200;2022-08-21T03:38:08;7.55;;;3.47;;
7199;SDS011;3641;49.082;8.200;2022-08-21T03:40:38;6.57;;;3.40;;
7199;SDS011;3641;49.082;8.200;2022-08-21T03:43:06;6.88;;;3.33;;
7199;SDS011;3641;49.082;8.200;2022-08-21T03:45:34;7.55;;;3.38;;
7199;SDS011;3641;49.082;8.200;2022-08-21T03:48:02;7.65;;;3.40;;
7199;SDS011;3641;49.082;8.200;2022-08-21T03:50:31;6.07;;;3.10;;
7199;SDS011;3641;49.082;8.200;2022-08-21T03:53:00;9.20;;;4.07;;
7199;SDS011;3641;49.082;8.200;2022-08-21T03:55:27;8.77;;;3.75;;
7199;SDS011;3641;49.082;8.200;2022-08-21T03:57:55;8.70;;;3.63;;
7199;SDS011;3641;49.082;8.200;2022-08-21T04:00:23;7.70;;;3.22;;
7199;SDS011;3641;49.082;8.200;2022-08-21T04:02:50;6.25;;;3.30;;
7199;SDS011;3641;49.082;8.200;2022-08-21T04:05:17;6.70;;;3.47;;
7199;SDS011;3641;49.082;8.200;2022-08-21T04:07:52;9.45;;;3.60;;
7199;SDS011;3641;49.082;8.200;2022-08-21T04:10:19;6.50;;;3.05;;
7199;SDS011;3641;49.082;8.200;2022-08-21T04:12:46;10.32;;;3.72;;
7199;SDS011;3641;49.082;8.200;2022-08-21T04:15:14;10.80;;;3.70;;
7199;SDS011;3641;49.082;8.200;2022-08-21T04:17:41;7.68;;;3.00;;
7199;SDS011;3641;49.082;8.200;2022-08-21T04:20:08;6.75;;;3.00;;
7199;SDS011;3641;49.082;8.200;2022-08-21T04:22:34;5.90;;;2.70;;
7199;SDS011;3641;49.082;8.200;2022-08-21T04:25:01;7.95;;;2.92;;
7199;SDS011;3641;49.082;8.200;2022-08-21T04:27:28;7.15;;;2.85;;
7199;SDS011;3641;49.082;8.200;2022-08-21T04:29:54;6.60;;;3.00;;
7199;SDS011;3641;49.082;8.200;2022-08-21T04:32:25;6.32;;;3.25;;
7199;SDS011;3641;49.082;8.200;2022-08-21T04:34:57;6.78;;;2.97;;
7199;SDS011;3641;49.082;8.200;2022-08-21T04:37:24;8.02;;;3.20;;
7199;SDS011;3641;49.082;8.200;2022-08-21T04:39:51;7.85;;;3.33;;
7199;SDS011;3641;49.082;8.200;2022-08-21T04:42:17;5.72;;;2.90;;
7199;SDS011;3641;49.082;8.200;2022-08-21T04:44:44;6.45;;;2.90;;
7199;SDS011;3641;49.082;8.200;2022-08-21T04:47:10;7.40;;;3.30;;
7199;SDS011;3641;49.082;8.200;2022-08-21T04:49:38;8.07;;;3.45;;
7199;SDS011;3641;49.082;8.200;2022-08-21T04:52:06;8.95;;;3.30;;
7199;SDS011;3641;49.082;8.200;2022-08-21T04:54:32;6.88;;;3.42;;
7199;SDS011;3641;49.082;8.200;2022-08-21T04:57:00;8.55;;;3.55;;
7199;SDS011;3641;49.082;8.200;2022-08-21T04:59:31;9.65;;;3.97;;
7199;SDS011;3641;49.082;8.200;2022-08-21T05:02:04;8.20;;;4.13;;
7199;SDS011;3641;49.082;8.200;2022-08-21T05:04:33;9.85;;;4.63;;
7199;SDS011;3641;49.082;8.200;2022-08-21T05:07:04;7.97;;;3.55;;
7199;SDS011;3641;49.082;8.200;2022-08-21T05:09:33;10.70;;;3.75;;
7199;SDS011;3641;49.082;8.200;2022-08-21T05:12:01;11.63;;;3.90;;
7199;SDS011;3641;49.082;8.200;2022-08-21T05:14:29;8.23;;;3.40;;
7199;SDS011;3641;49.082;8.200;2022-08-21T05:16:55;8.90;;;3.05;;
7199;SDS011;3641;49.082;8.200;2022-08-21T05:19:22;8.23;;;3.50;;
7199;SDS011;3641;49.082;8.200;2022-08-21T05:21:48;8.15;;;3.47;;
7199;SDS011;3641;49.082;8.200;2022-08-21T05:24:16;7.70;;;3.22;;
7199;SDS011;3641;49.082;8.200;2022-08-21T05:26:43;6.25;;;3.40;;
7199;SDS011;3641;49.082;8.200;2022-08-21T05:29:10;8.88;;;4.20;;
7199;SDS011;3641;49.082;8.200;2022-08-21T05:31:37;6.55;;;4.00;;
7199;SDS011;3641;49.082;8.200;2022-08-21T05:34:04;7.43;;;3.80;;
7199;SDS011;3641;49.082;8.200;2022-08-21T05:36:30;11.73;;;4.57;;
7199;SDS011;3641;49.082;8.200;2022-08-21T05:38:57;10.40;;;4.45;;
7199;SDS011;3641;49.082;8.200;2022-08-21T05:41:25;10.18;;;4.45;;
7199;SDS011;3641;49.082;8.200;2022-08-21T05:43:51;6.72;;;4.25;;
7199;SDS011;3641;49.082;8.200;2022-08-21T05:46:18;11.15;;;4.53;;
7199;SDS011;3641;49.082;8.200;2022-08-21T05:48:44;6.70;;;4.00;;
7199;SDS011;3641;49.082;8.200;2022-08-21T05:51:11;11.68;;;4.28;;
7199;SDS011;3641;49.082;8.200;2022-08-21T05:53:39;9.70;;;4.50;;
7199;SDS011;3641;49.082;8.200;2022-08-21T05:56:07;7.00;;;4.05;;
7199;SDS011;3641;49.082;8.200;2022-08-21T05:58:35;8.35;;;3.83;;
7199;SDS011;3641;49.082;8.200;2022-08-21T06:01:02;9.70;;;4.07;;
7199;SDS011;3641;49.082;8.200;2022-08-21T06:03:31;9.48;;;4.00;;
7199;SDS011;3641;49.082;8.200;2022-08-21T06:06:00;12.27;;;4.47;;
7199;SDS011;3641;49.082;8.200;2022-08-21T06:08:27;6.88;;;3.75;;
7199;SDS011;3641;49.082;8.200;2022-08-21T06:10:55;9.10;;;3.83;;
7199;SDS011;3641;49.082;8.200;2022-08-21T06:13:24;8.23;;;3.92;;
7199;SDS011;3641;49.082;8.200;2022-08-21T06:16:01;11.20;;;4.30;;
7199;SDS011;3641;49.082;8.200;2022-08-21T06:18:29;10.10;;;3.42;;
7199;SDS011;3641;49.082;8.200;2022-08-21T06:20:56;11.30;;;4.25;;
7199;SDS011;3641;49.082;8.200;2022-08-21T06:23:23;8.40;;;3.75;;
7199;SDS011;3641;49.082;8.200;2022-08-21T06:25:49;12.63;;;4.30;;
7199;SDS011;3641;49.082;8.200;2022-08-21T06:28:16;7.70;;;3.88;;
7199;SDS011;3641;49.082;8.200;2022-08-21T06:30:42;10.18;;;4.97;;
7199;SDS011;3641;49.082;8.200;2022-08-21T06:33:10;9.13;;;4.10;;
7199;SDS011;3641;49.082;8.200;2022-08-21T06:35:37;8.13;;;4.38;;
7199;SDS011;3641;49.082;8.200;2022-08-21T06:38:03;9.75;;;3.70;;
7199;SDS011;3641;49.082;8.200;2022-08-21T06:40:30;8.13;;;3.78;;
7199;SDS011;3641;49.082;8.200;2022-08-21T06:42:56;8.88;;;3.90;;
7199;SDS011;3641;49.082;8.200;2022-08-21T06:45:23;7.05;;;3.65;;
7199;SDS011;3641;49.082;8.200;2022-08-21T06:47:50;11.02;;;3.97;;
7199;SDS011;3641;49.082;8.200;2022-08-21T06:50:18;7.97;;;3.95;;
7199;SDS011;3641;49.082;8.200;2022-08-21T06:52:45;7.70;;;3.97;;
7199;SDS011;3641;49.082;8.200;2022-08-21T06:55:11;8.68;;;3.80;;
7199;SDS011;3641;49.082;8.200;2022-08-21T06:57:39;9.45;;;3.95;;
7199;SDS011;3641;49.082;8.200;2022-08-21T07:00:05;7.85;;;3.78;;
7199;SDS011;3641;49.082;8.200;2022-08-21T07:02:34;8.85;;;4.10;;
7199;SDS011;3641;49.082;8.200;2022-08-21T07:05:01;9.00;;;3.65;;
7199;SDS011;3641;49.082;8.200;2022-08-21T07:07:29;8.38;;;3.55;;
7199;SDS011;3641;49.082;8.200;2022-08-21T07:09:56;9.98;;;4.22;;
7199;SDS011;3641;49.082;8.200;2022-08-21T07:12:22;11.63;;;4.03;;
7199;SDS011;3641;49.082;8.200;2022-08-21T07:14:50;8.20;;;4.03;;
7199;SDS011;3641;49.082;8.200;2022-08-21T07:17:17;11.07;;;3.45;;
7199;SDS011;3641;49.082;8.200;2022-08-21T07:19:43;10.18;;;3.97;;
7199;SDS011;3641;49.082;8.200;2022-08-21T07:22:10;9.50;;;3.53;;
7199;SDS011;3641;49.082;8.200;2022-08-21T07:24:39;8.10;;;3.28;;
7199;SDS011;3641;49.082;8.200;2022-08-21T07:27:05;9.00;;;3.40;;
7199;SDS011;3641;49.082;8.200;2022-08-21T07:29:32;10.32;;;4.40;;
7199;SDS011;3641;49.082;8.200;2022-08-21T07:31:58;9.25;;;3.22;;
7199;SDS011;3641;49.082;8.200;2022-08-21T07:34:25;9.93;;;4.03;;
7199;SDS011;3641;49.082;8.200;2022-08-21T07:36:51;7.53;;;3.72;;
7199;SDS011;3641;49.082;8.200;2022-08-21T07:39:18;8.35;;;3.28;;
7199;SDS011;3641;49.082;8.200;2022-08-21T07:41:46;7.95;;;3.53;;
7199;SDS011;3641;49.082;8.200;2022-08-21T07:44:12;9.48;;;3.63;;
7199;SDS011;3641;49.082;8.200;2022-08-21T07:46:39;9.98;;;3.28;;
7199;SDS011;3641;49.082;8.200;2022-08-21T07:49:05;10.30;;;3.80;;
7199;SDS011;3641;49.082;8.200;2022-08-21T07:51:32;7.80;;;3.45;;
7199;SDS011;3641;49.082;8.200;2022-08-21T07:53:59;9.80;;;3.35;;
7199;SDS011;3641;49.082;8.200;2022-08-21T07:56:27;7.72;;;3.40;;
7199;SDS011;3641;49.082;8.200;2022-08-21T07:58:57;8.02;;;3.40;;
7199;SDS011;3641;49.082;8.200;2022-08-21T08:01:24;9.25;;;3.80;;
7199;SDS011;3641;49.082;8.200;2022-08-21T08:03:50;23.95;;;5.25;;
7199;SDS011;3641;49.082;8.200;2022-08-21T08:06:17;12.05;;;3.75;;
7199;SDS011;3641;49.082;8.200;2022-08-21T08:08:44;10.68;;;3.20;;
7199;SDS011;3641;49.082;8.200;2022-08-21T08:11:12;9.63;;;3.33;;
7199;SDS011;3641;49.082;8.200;2022-08-21T08:13:40;9.43;;;3.47;;
7199;SDS011;3641;49.082;8.200;2022-08-21T08:16:09;11.93;;;3.58;;
7199;SDS011;3641;49.082;8.200;2022-08-21T08:18:36;7.40;;;3.38;;
7199;SDS011;3641;49.082;8.200;2022-08-21T08:21:02;7.15;;;3.60;;
7199;SDS011;3641;49.082;8.200;2022-08-21T08:23:29;9.40;;;3.25;;
7199;SDS011;3641;49.082;8.200;2022-08-21T08:25:57;6.85;;;3.20;;
7199;SDS011;3641;49.082;8.200;2022-08-21T08:28:23;8.27;;;3.45;;
7199;SDS011;3641;49.082;8.200;2022-08-21T08:30:52;6.53;;;3.25;;
7199;SDS011;3641;49.082;8.200;2022-08-21T08:33:19;7.97;;;3.38;;
7199;SDS011;3641;49.082;8.200;2022-08-21T08:35:47;9.82;;;3.08;;
7199;SDS011;3641;49.082;8.200;2022-08-21T08:38:15;9.27;;;3.10;;
7199;SDS011;3641;49.082;8.200;2022-08-21T08:40:46;8.55;;;3.17;;
7199;SDS011;3641;49.082;8.200;2022-08-21T08:43:18;10.05;;;3.58;;
7199;SDS011;3641;49.082;8.200;2022-08-21T08:45:50;8.05;;;3.10;;
7199;SDS011;3641;49.082;8.200;2022-08-21T08:48:31;10.23;;;3.50;;
7199;SDS011;3641;49.082;8.200;2022-08-21T08:51:08;9.95;;;2.95;;
7199;SDS011;3641;49.082;8.200;2022-08-21T08:53:42;7.68;;;3.30;;
7199;SDS011;3641;49.082;8.200;2022-08-21T08:56:15;11.20;;;3.33;;
7199;SDS011;3641;49.082;8.200;2022-08-21T08:58:47;9.75;;;2.60;;
7199;SDS011;3641;49.082;8.200;2022-08-21T09:01:17;8.38;;;3.38;;
7199;SDS011;3641;49.082;8.200;2022-08-21T09:03:47;8.02;;;2.95;;
7199;SDS011;3641;49.082;8.200;2022-08-21T09:06:19;12.30;;;3.63;;
7199;SDS011;3641;49.082;8.200;2022-08-21T09:08:57;7.93;;;2.95;;
7199;SDS011;3641;49.082;8.200;2022-08-21T09:11:35;7.22;;;3.00;;
7199;SDS011;3641;49.082;8.200;2022-08-21T09:14:10;8.32;;;2.78;;
7199;SDS011;3641;49.082;8.200;2022-08-21T09:16:45;8.95;;;3.13;;
7199;SDS011;3641;49.082;8.200;2022-08-21T09:19:26;13.57;;;3.10;;
7199;SDS011;3641;49.082;8.200;2022-08-21T09:22:04;6.60;;;3.03;;
7199;SDS011;3641;49.082;8.200;2022-08-21T09:24:42;11.55;;;3.30;;
7199;SDS011;3641;49.082;8.200;2022-08-21T09:27:18;7.85;;;2.90;;
7199;SDS011;3641;49.082;8.200;2022-08-21T09:29:47;7.88;;;3.10;;
7199;SDS011;3641;49.082;8.200;2022-08-21T09:32:21;6.90;;;3.13;;
7199;SDS011;3641;49.082;8.200;2022-08-21T09:34:59;5.40;;;2.70;;
7199;SDS011;3641;49.082;8.200;2022-08-21T09:37:34;9.57;;;3.58;;
7199;SDS011;3641;49.082;8.200;2022-08-21T09:40:15;7.60;;;3.20;;
7199;SDS011;3641;49.082;8.200;2022-08-21T09:42:53;8.65;;;3.17;;
7199;SDS011;3641;49.082;8.200;2022-08-21T09:45:21;7.82;;;3.10;;
7199;SDS011;3641;49.082;8.200;2022-08-21T09:47:47;10.13;;;3.00;;
7199;SDS011;3641;49.082;8.200;2022-08-21T09:50:17;9.20;;;3.10;;
7199;SDS011;3641;49.082;8.200;2022-08-21T09:52:48;11.23;;;3.47;;
7199;SDS011;3641;49.082;8.200;2022-08-21T09:55:18;10.07;;;3.22;;
7199;SDS011;3641;49.082;8.200;2022-08-21T09:58:06;9.90;;;2.97;;
7199;SDS011;3641;49.082;8.200;2022-08-21T10:00:34;8.25;;;2.83;;
7199;SDS011;3641;49.082;8.200;2022-08-21T10:03:09;7.43;;;3.25;;
7199;SDS011;3641;49.082;8.200;2022-08-21T10:05:50;9.07;;;3.15;;
7199;SDS011;3641;49.082;8.200;2022-08-21T10:08:19;9.45;;;3.20;;
7199;SDS011;3641;49.082;8.200;2022-08-21T10:10:50;10.05;;;3.08;;
7199;SDS011;3641;49.082;8.200;2022-08-21T10:13:20;8.13;;;3.00;;
7199;SDS011;3641;49.082;8.200;2022-08-21T10:15:52;10.63;;;3.60;;
7199;SDS011;3641;49.082;8.200;2022-08-21T10:18:34;9.23;;;3.42;;
7199;SDS011;3641;49.082;8.200;2022-08-21T10:21:07;11.43;;;3.28;;
7199;SDS011;3641;49.082;8.200;2022-08-21T10:23:44;7.60;;;3.15;;
7199;SDS011;3641;49.082;8.200;2022-08-21T10:26:20;8.35;;;3.28;;
7199;SDS011;3641;49.082;8.200;2022-08-21T10:28:58;8.98;;;2.92;;
7199;SDS011;3641;49.082;8.200;2022-08-21T10:31:31;7.75;;;3.05;;
7199;SDS011;3641;49.082;8.200;2022-08-21T10:34:09;6.50;;;2.80;;
7199;SDS011;3641;49.082;8.200;2022-08-21T10:36:50;7.35;;;2.88;;
7199;SDS011;3641;49.082;8.200;2022-08-21T10:39:27;7.10;;;2.50;;
7199;SDS011;3641;49.082;8.200;2022-08-21T10:42:06;8.52;;;3.20;;
7199;SDS011;3641;49.082;8.200;2022-08-21T10:44:56;9.70;;;3.10;;
7199;SDS011;3641;49.082;8.200;2022-08-21T10:47:35;7.50;;;3.22;;
7199;SDS011;3641;49.082;8.200;2022-08-21T10:50:08;13.18;;;3.05;;
7199;SDS011;3641;49.082;8.200;2022-08-21T10:52:47;8.25;;;3.10;;
7199;SDS011;3641;49.082;8.200;2022-08-21T10:55:22;6.70;;;2.60;;
7199;SDS011;3641;49.082;8.200;2022-08-21T10:57:53;9.75;;;3.10;;
7199;SDS011;3641;49.082;8.200;2022-08-21T11:00:23;7.47;;;3.15;;
7199;SDS011;3641;49.082;8.200;2022-08-21T11:02:56;8.95;;;3.13;;
7199;SDS011;3641;49.082;8.200;2022-08-21T11:05:25;9.70;;;2.97;;
7199;SDS011;3641;49.082;8.200;2022-08-21T11:08:00;9.13;;;2.90;;
7199;SDS011;3641;49.082;8.200;2022-08-21T11:10:31;7.95;;;2.50;;
7199;SDS011;3641;49.082;8.200;2022-08-21T11:13:04;8.15;;;2.90;;
7199;SDS011;3641;49.082;8.200;2022-08-21T11:15:39;7.10;;;2.78;;
7199;SDS011;3641;49.082;8.200;2022-08-21T11:18:16;8.73;;;2.40;;
7199;SDS011;3641;49.082;8.200;2022-08-21T11:20:49;6.43;;;2.63;;
7199;SDS011;3641;49.082;8.200;2022-08-21T11:23:22;6.80;;;2.67;;
7199;SDS011;3641;49.082;8.200;2022-08-21T11:25:56;6.75;;;2.42;;
7199;SDS011;3641;49.082;8.200;2022-08-21T11:28:28;7.32;;;2.75;;
7199;SDS011;3641;49.082;8.200;2022-08-21T11:31:07;6.65;;;2.80;;
7199;SDS011;3641;49.082;8.200;2022-08-21T11:33:49;7.05;;;2.78;;
7199;SDS011;3641;49.082;8.200;2022-08-21T11:36:27;7.05;;;2.80;;
7199;SDS011;3641;49.082;8.200;2022-08-21T11:39:06;6.35;;;2.50;;
7199;SDS011;3641;49.082;8.200;2022-08-21T11:41:43;8.43;;;2.60;;
7199;SDS011;3641;49.082;8.200;2022-08-21T11:44:22;6.18;;;2.63;;
7199;SDS011;3641;49.082;8.200;2022-08-21T11:46:59;7.10;;;2.80;;
7199;SDS011;3641;49.082;8.200;2022-08-21T11:49:39;5.03;;;2.58;;
7199;SDS011;3641;49.082;8.200;2022-08-21T11:52:14;9.27;;;2.55;;
7199;SDS011;3641;49.082;8.200;2022-08-21T11:54:48;5.95;;;2.60;;
7199;SDS011;3641;49.082;8.200;2022-08-21T11:57:23;9.60;;;2.88;;
7199;SDS011;3641;49.082;8.200;2022-08-21T11:59:53;8.60;;;2.90;;
7199;SDS011;3641;49.082;8.200;2022-08-21T12:02:28;6.20;;;2.30;;
7199;SDS011;3641;49.082;8.200;2022-08-21T12:04:59;5.97;;;2.15;;
7199;SDS011;3641;49.082;8.200;2022-08-21T12:07:31;8.93;;;2.78;;
7199;SDS011;3641;49.082;8.200;2022-08-21T12:10:03;9.18;;;2.92;;
7199;SDS011;3641;49.082;8.200;2022-08-21T12:12:32;7.60;;;2.90;;
7199;SDS011;3641;49.082;8.200;2022-08-21T12:17:58;9.43;;;2.63;;
7199;SDS011;3641;49.082;8.200;2022-08-21T12:20:37;5.07;;;2.47;;
7199;SDS011;3641;49.082;8.200;2022-08-21T12:23:16;7.15;;;2.67;;
7199;SDS011;3641;49.082;8.200;2022-08-21T12:25:47;9.30;;;3.05;;
7199;SDS011;3641;49.082;8.200;2022-08-21T12:28:25;9.40;;;2.80;;
7199;SDS011;3641;49.082;8.200;2022-08-21T12:30:54;6.13;;;2.80;;
7199;SDS011;3641;49.082;8.200;2022-08-21T12:33:22;7.97;;;2.58;;
7199;SDS011;3641;49.082;8.200;2022-08-21T12:35:52;6.72;;;2.80;;
7199;SDS011;3641;49.082;8.200;2022-08-21T12:38:28;5.90;;;2.60;;
7199;SDS011;3641;49.082;8.200;2022-08-21T12:41:00;6.70;;;2.55;;
7199;SDS011;3641;49.082;8.200;2022-08-21T12:43:31;6.53;;;2.72;;
7199;SDS011;3641;49.082;8.200;2022-08-21T12:46:01;5.82;;;2.58;;
7199;SDS011;3641;49.082;8.200;2022-08-21T12:48:31;9.93;;;2.65;;
7199;SDS011;3641;49.082;8.200;2022-08-21T12:51:06;7.40;;;2.35;;
7199;SDS011;3641;49.082;8.200;2022-08-21T12:53:39;9.13;;;3.28;;
7199;SDS011;3641;49.082;8.200;2022-08-21T12:56:10;4.78;;;2.42;;
7199;SDS011;3641;49.082;8.200;2022-08-21T12:58:40;6.15;;;2.83;;
7199;SDS011;3641;49.082;8.200;2022-08-21T13:01:11;5.95;;;2.35;;
7199;SDS011;3641;49.082;8.200;2022-08-21T13:03:43;11.27;;;3.13;;
7199;SDS011;3641;49.082;8.200;2022-08-21T13:06:12;5.53;;;2.25;;
7199;SDS011;3641;49.082;8.200;2022-08-21T13:08:42;5.85;;;2.47;;
7199;SDS011;3641;49.082;8.200;2022-08-21T13:11:12;5.32;;;2.42;;
7199;SDS011;3641;49.082;8.200;2022-08-21T13:13:42;7.70;;;2.92;;
7199;SDS011;3641;49.082;8.200;2022-08-21T13:16:09;7.78;;;2.83;;
7199;SDS011;3641;49.082;8.200;2022-08-21T13:18:38;9.60;;;2.80;;
7199;SDS011;3641;49.082;8.200;2022-08-21T13:21:19;7.90;;;2.35;;
7199;SDS011;3641;49.082;8.200;2022-08-21T13:23:46;7.38;;;2.72;;
7199;SDS011;3641;49.082;8.200;2022-08-21T13:26:15;10.35;;;2.85;;
7199;SDS011;3641;49.082;8.200;2022-08-21T13:28:43;6.90;;;2.50;;
7199;SDS011;3641;49.082;8.200;2022-08-21T13:31:12;6.50;;;2.40;;
7199;SDS011;3641;49.082;8.200;2022-08-21T13:33:43;6.15;;;2.20;;
7199;SDS011;3641;49.082;8.200;2022-08-21T13:36:11;9.23;;;2.95;;
7199;SDS011;3641;49.082;8.200;2022-08-21T13:38:44;6.95;;;2.35;;
7199;SDS011;3641;49.082;8.200;2022-08-21T13:41:20;5.93;;;2.22;;
7199;SDS011;3641;49.082;8.200;2022-08-21T13:43:56;6.60;;;2.50;;
7199;SDS011;3641;49.082;8.200;2022-08-21T13:46:24;6.18;;;2.42;;
7199;SDS011;3641;49.082;8.200;2022-08-21T13:48:53;6.95;;;2.53;;
7199;SDS011;3641;49.082;8.200;2022-08-21T13:51:21;3.47;;;1.73;;
7199;SDS011;3641;49.082;8.200;2022-08-21T13:53:49;6.07;;;2.45;;
7199;SDS011;3641;49.082;8.200;2022-08-21T13:56:23;6.78;;;2.22;;
7199;SDS011;3641;49.082;8.200;2022-08-21T13:58:52;5.43;;;2.42;;
7199;SDS011;3641;49.082;8.200;2022-08-21T14:01:21;6.20;;;2.20;;
7199;SDS011;3641;49.082;8.200;2022-08-21T14:03:52;5.75;;;1.98;;
7199;SDS011;3641;49.082;8.200;2022-08-21T14:06:24;5.72;;;2.35;;
7199;SDS011;3641;49.082;8.200;2022-08-21T14:08:53;8.15;;;2.20;;
7199;SDS011;3641;49.082;8.200;2022-08-21T14:11:23;5.38;;;2.10;;
7199;SDS011;3641;49.082;8.200;2022-08-21T14:13:55;5.65;;;2.58;;
7199;SDS011;3641;49.082;8.200;2022-08-21T14:16:24;5.65;;;2.85;;
7199;SDS011;3641;49.082;8.200;2022-08-21T14:18:53;7.50;;;2.72;;
7199;SDS011;3641;49.082;8.200;2022-08-21T14:21:35;5.05;;;2.13;;
7199;SDS011;3641;49.082;8.200;2022-08-21T14:24:08;5.35;;;2.40;;
7199;SDS011;3641;49.082;8.200;2022-08-21T14:26:42;6.75;;;2.20;;
7199;SDS011;3641;49.082;8.200;2022-08-21T14:29:12;5.68;;;2.40;;
7199;SDS011;3641;49.082;8.200;2022-08-21T14:31:41;5.82;;;2.20;;
7199;SDS011;3641;49.082;8.200;2022-08-21T14:34:09;4.25;;;2.22;;
7199;SDS011;3641;49.082;8.200;2022-08-21T14:36:38;5.53;;;2.10;;
7199;SDS011;3641;49.082;8.200;2022-08-21T14:39:05;4.55;;;2.10;;
7199;SDS011;3641;49.082;8.200;2022-08-21T14:41:31;7.03;;;2.20;;
7199;SDS011;3641;49.082;8.200;2022-08-21T14:43:59;5.18;;;2.53;;
7199;SDS011;3641;49.082;8.200;2022-08-21T14:46:26;6.47;;;1.98;;
7199;SDS011;3641;49.082;8.200;2022-08-21T14:48:55;5.57;;;2.33;;
7199;SDS011;3641;49.082;8.200;2022-08-21T14:51:22;5.43;;;2.10;;
7199;SDS011;3641;49.082;8.200;2022-08-21T14:53:48;5.20;;;2.03;;
7199;SDS011;3641;49.082;8.200;2022-08-21T14:56:15;4.63;;;2.17;;
7199;SDS011;3641;49.082;8.200;2022-08-21T14:58:43;6.20;;;2.28;;
7199;SDS011;3641;49.082;8.200;2022-08-21T15:01:13;6.32;;;2.45;;
7199;SDS011;3641;49.082;8.200;2022-08-21T15:03:42;4.82;;;2.15;;
7199;SDS011;3641;49.082;8.200;2022-08-21T15:06:09;4.43;;;2.13;;
7199;SDS011;3641;49.082;8.200;2022-08-21T15:08:36;6.60;;;2.08;;
7199;SDS011;3641;49.082;8.200;2022-08-21T15:11:03;3.88;;;2.20;;
7199;SDS011;3641;49.082;8.200;2022-08-21T15:13:31;6.63;;;2.40;;
7199;SDS011;3641;49.082;8.200;2022-08-21T15:15:59;5.90;;;2.17;;
7199;SDS011;3641;49.082;8.200;2022-08-21T15:18:28;3.75;;;1.90;;
7199;SDS011;3641;49.082;8.200;2022-08-21T15:20:55;4.63;;;2.20;;
7199;SDS011;3641;49.082;8.200;2022-08-21T15:23:22;6.05;;;2.22;;
7199;SDS011;3641;49.082;8.200;2022-08-21T15:25:49;4.25;;;2.00;;
7199;SDS011;3641;49.082;8.200;2022-08-21T15:28:16;6.18;;;2.30;;
7199;SDS011;3641;49.082;8.200;2022-08-21T15:30:44;5.03;;;2.13;;
7199;SDS011;3641;49.082;8.200;2022-08-21T15:33:11;3.95;;;1.90;;